Terminal Aerodrome Forecast
Issued by NWS Lake Charles, LA

Home | Current Version | Previous Version | Text Only | Print | Product List | Glossary On
Versions: 1 2 3 4 5 6 7 8 9 10 11 12 13 14 15 16 17 18 19 20 21
000
FTUS44 KLCH 052340
TAFAEX
TAF
KAEX 052340Z 0600/0624 08012KT P6SM OVC080
     FM060900 VRB03KT 6SM BR OVC016
     FM061600 18008KT P6SM SCT180=

USA.gov is the U.S. government's official web portal to all federal, state and local government web resources and services.